메인 페이지
METAR-TAF:

METAR-TAF

공항 :

마데이라 공항

푼샬, 마데이라 제도, 포르투갈

위도: 32-41-52N, 경도: 016-46-28W, 고도: 59m

현재 날씨관측

예보는 39분 전, 22:30시(UTC)에 발표되었습니다.
서북서4kt
온도 16°C
습도 63%
기압 1016 hPa
시정 10km 이상
고도 1600ft 상공 구름 보통

METAR: LPMA 232230Z 29004KT 9999 SCT016 16/09 Q1016

시각: 00:09 (23:09 UTC)

예보

예보는 6 시간 9분 전, 17:00시(UTC)에 발표되었습니다.
예보 대상 시간: 23일 18시부터 24일 18시까지 (UTC)
여러 방향의 바람 5kt
시정 10km 이상
고도 1500ft 상공 구름 보통
고도 3000ft 상공 구름 보통
일시적
23일 18시부터 24일 18시까지 (UTC)
고도 1500ft 상공 구름 많음
확률 40% :
일시적
23일 18시부터 23일 24시까지 (UTC)
10kt

TAF: LPMA 231700Z 2318/2418 VRB05KT 9999 SCT015 SCT030 TEMPO 2318/2418 BKN015 PROB40 TEMPO 2318/2324 36010KT

4,000개 이상의 공항 관측 자료 및 예보 (METAR 및 TAF 보고).

지도상에서 검색 가능한 기상관측소가 노란 점과 빨간 점으로 표시되어 있습니다.

기상관측소 명을 보려면 표시 위로 마우스를 이동하세요.

날씨 관측과 예보를 보려면 클릭하세요.

지도 변경 : 확대하려면 엑스 표시가 있는 녹색 버튼, 축소하려면 빼기 표시가 있는 녹색 버튼, 다음 페이지의 지도를 보려면 녹색 화살표를 클릭하세요.


METAR-TAF: